Time;durP1;ratioP1;P1;durP2;ratioP2;P2;SDS_P1;SDS_P2;PMS_P1;PMS_P2;Temp;Humidity;BMP_temperature;BMP_pressure;BME280_temperature;BME280_humidity;BME280_pressure;Samples;Min_cycle;Max_cycle;Signal;HPM_P1;HPM_P2
2022/07/12 00:01:54;;;;;;;5.75;1.63;;;;;;;51.67;8.54;100332.16;5049705;28;20025;-61
2022/07/12 00:04:21;;;;;;;6.65;1.40;;;;;;;51.35;8.40;100322.84;5045519;28;20022;-61
2022/07/12 00:06:48;;;;;;;7.00;1.30;;;;;;;50.61;9.07;100340.13;5047034;28;20060;-61
2022/07/12 00:09:17;;;;;;;4.63;1.33;;;;;;;50.52;9.35;100329.00;5050105;28;20013;-61
2022/07/12 00:11:44;;;;;;;4.38;1.30;;;;;;;50.31;9.01;100317.25;5042765;28;20033;-60
2022/07/12 00:14:12;;;;;;;7.47;1.65;;;;;;;52.04;8.29;100327.34;5044771;28;20471;-61
2022/07/12 00:16:39;;;;;;;7.07;1.40;;;;;;;52.82;7.45;100319.50;5047420;28;20570;-61
2022/07/12 00:19:10;;;;;;;5.05;1.40;;;;;;;50.83;8.58;100323.72;5038662;28;20136;-60
2022/07/12 00:21:37;;;;;;;5.35;1.33;;;;;;;49.60;9.62;100320.75;5035964;28;20064;-61
2022/07/12 00:24:04;;;;;;;6.18;1.60;;;;;;;49.19;9.50;100318.13;5032323;28;20114;-61
2022/07/12 00:26:31;;;;;;;7.18;1.70;;;;;;;50.19;8.76;100304.34;5033300;28;20460;-62
2022/07/12 00:28:58;;;;;;;8.52;1.70;;;;;;;50.69;9.12;100305.56;5033673;28;20038;-60
2022/07/12 00:31:25;;;;;;;2.70;1.20;;;;;;;48.93;10.15;100307.16;5043975;28;20033;-61
2022/07/12 00:33:52;;;;;;;9.75;1.30;;;;;;;48.35;10.15;100301.75;5043954;28;20029;-60
2022/07/12 00:36:19;;;;;;;12.52;1.65;;;;;;;49.44;9.53;100298.66;5051740;28;20191;-61
2022/07/12 00:38:47;;;;;;;13.13;1.90;;;;;;;50.37;9.43;100294.03;5044626;28;20073;-60
2022/07/12 00:41:14;;;;;;;12.02;1.48;;;;;;;49.99;9.36;100291.28;5044618;28;20082;-61
2022/07/12 00:43:41;;;;;;;5.88;1.40;;;;;;;50.13;9.57;100292.88;5050423;28;20040;-62
2022/07/12 00:46:09;;;;;;;4.18;1.17;;;;;;;48.80;9.99;100301.28;5045915;28;20017;-63
2022/07/12 00:48:36;;;;;;;14.55;1.80;;;;;;;48.42;10.33;100306.91;5041734;28;20431;-64
2022/07/12 00:51:03;;;;;;;7.57;1.50;;;;;;;49.49;9.31;100304.34;5044732;28;20475;-62
2022/07/12 00:53:30;;;;;;;10.43;1.83;;;;;;;49.04;9.50;100307.06;5036245;28;20450;-62
2022/07/12 00:55:58;;;;;;;15.73;1.50;;;;;;;48.63;9.68;100293.59;5040858;28;20033;-62
2022/07/12 00:58:26;;;;;;;9.07;1.80;;;;;;;47.87;10.07;100297.41;5048974;28;20025;-63
2022/07/12 01:00:56;;;;;;;15.27;1.55;;;;;;;47.12;10.44;100302.50;5042843;28;20037;-66
2022/07/12 01:03:23;;;;;;;18.65;2.13;;;;;;;47.94;10.06;100293.97;5043708;28;20035;-63
2022/07/12 01:05:50;;;;;;;10.60;1.80;;;;;;;48.59;9.56;100292.34;5039834;28;20025;-63
2022/07/12 01:08:19;;;;;;;10.05;1.85;;;;;;;48.96;9.45;100297.44;5038725;28;20511;-63
2022/07/12 01:10:49;;;;;;;13.20;1.80;;;;;;;48.54;9.64;100298.94;5040189;28;20141;-63
2022/07/12 01:13:17;;;;;;;9.50;1.80;;;;;;;48.04;9.94;100306.69;5043080;28;20454;-65
2022/07/12 01:15:45;;;;;;;10.80;1.70;;;;;;;47.95;9.64;100297.63;5053060;28;20036;-65
2022/07/12 01:18:11;;;;;;;6.88;1.80;;;;;;;47.70;10.44;100294.63;5041151;28;20026;-64
2022/07/12 01:20:38;;;;;;;8.38;1.75;;;;;;;47.82;10.32;100301.88;5040170;28;20048;-63
2022/07/12 01:23:05;;;;;;;13.93;1.70;;;;;;;47.34;10.90;100296.66;5041361;28;20048;-63
2022/07/12 01:25:32;;;;;;;10.07;1.63;;;;;;;46.58;10.83;100300.03;5042208;28;20033;-63
2022/07/12 01:27:59;;;;;;;13.77;1.80;;;;;;;46.58;10.89;100308.66;5036143;28;20087;-64
2022/07/12 01:30:26;;;;;;;8.10;1.40;;;;;;;46.55;10.84;100307.63;5038851;28;20028;-64
2022/07/12 01:32:53;;;;;;;9.90;1.80;;;;;;;46.49;11.74;100312.59;5034602;28;20036;-63
2022/07/12 01:35:21;;;;;;;12.05;1.50;;;;;;;46.59;11.05;100313.09;5042600;28;20087;-64
2022/07/12 01:37:48;;;;;;;17.45;2.00;;;;;;;46.50;10.96;100322.00;5036317;28;20450;-65
2022/07/12 01:40:16;;;;;;;13.48;1.40;;;;;;;46.24;11.54;100316.53;5037634;28;20029;-65
2022/07/12 01:42:45;;;;;;;7.50;1.50;;;;;;;45.80;11.51;100317.28;5038849;28;20025;-65
2022/07/12 01:45:12;;;;;;;10.68;1.40;;;;;;;45.40;11.73;100319.22;5038782;28;20033;-67
2022/07/12 01:47:39;;;;;;;6.43;1.40;;;;;;;44.67;12.36;100327.44;5039455;28;20022;-65
2022/07/12 01:50:10;;;;;;;18.00;2.13;;;;;;;44.51;12.51;100334.63;5038181;28;20028;-66
2022/07/12 01:52:40;;;;;;;9.05;1.50;;;;;;;44.26;12.42;100326.84;5040486;28;20045;-64
2022/07/12 01:55:08;;;;;;;15.43;1.60;;;;;;;44.07;12.46;100337.06;5038119;28;20113;-64
2022/07/12 01:57:35;;;;;;;7.57;1.52;;;;;;;43.94;12.72;100335.38;5038613;28;20030;-66
2022/07/12 02:00:05;;;;;;;23.48;2.10;;;;;;;43.80;12.73;100341.22;5035604;28;20478;-65
2022/07/12 02:02:32;;;;;;;9.57;1.30;;;;;;;43.52;12.46;100349.50;5053605;28;20475;-65
2022/07/12 02:05:04;;;;;;;6.40;1.23;;;;;;;43.21;12.60;100350.91;5038354;28;20022;-64
2022/07/12 02:07:32;;;;;;;10.52;1.35;;;;;;;43.16;12.77;100351.63;5039732;28;20021;-63
2022/07/12 02:09:59;;;;;;;9.05;1.20;;;;;;;43.12;12.42;100357.56;5034765;28;20013;-64
2022/07/12 02:12:26;;;;;;;21.55;1.70;;;;;;;42.83;13.14;100351.91;5035509;28;20029;-64
2022/07/12 02:14:52;;;;;;;11.70;1.35;;;;;;;42.61;12.79;100360.16;5036858;28;20032;-65
2022/07/12 02:17:19;;;;;;;10.38;1.50;;;;;;;42.48;12.95;100363.28;5036870;28;20033;-65
2022/07/12 02:19:46;;;;;;;9.18;1.20;;;;;;;42.20;13.70;100357.91;5040499;28;20039;-64
2022/07/12 02:22:12;;;;;;;12.50;1.75;;;;;;;42.11;13.62;100360.84;5036231;28;20494;-64
2022/07/12 02:24:39;;;;;;;10.43;1.40;;;;;;;41.95;13.67;100373.53;5037579;28;20033;-64
2022/07/12 02:27:06;;;;;;;10.32;1.40;;;;;;;41.75;13.74;100366.91;5037185;28;20084;-64
2022/07/12 02:29:33;;;;;;;9.23;1.42;;;;;;;41.61;13.81;100371.25;5039353;28;20025;-64
2022/07/12 02:32:01;;;;;;;9.18;1.52;;;;;;;41.45;14.10;100377.41;5039823;28;20132;-64
2022/07/12 02:34:27;;;;;;;15.27;1.45;;;;;;;41.33;14.47;100384.97;5034544;28;20071;-62
2022/07/12 02:36:54;;;;;;;6.53;1.45;;;;;;;41.14;14.58;100387.13;5035401;28;20057;-64
2022/07/12 02:39:23;;;;;;;12.18;1.50;;;;;;;41.01;14.58;100384.50;5034705;28;20029;-62
2022/07/12 02:41:50;;;;;;;9.32;1.50;;;;;;;40.88;14.73;100392.47;5036460;28;20055;-63
2022/07/12 02:44:17;;;;;;;10.70;1.67;;;;;;;40.78;14.70;100393.78;5042059;28;20078;-63
2022/07/12 02:46:44;;;;;;;13.55;1.60;;;;;;;40.65;14.72;100401.75;5050956;28;20029;-65
2022/07/12 02:49:10;;;;;;;14.52;1.55;;;;;;;40.46;15.13;100406.72;5038659;28;20167;-62
2022/07/12 02:51:37;;;;;;;12.85;1.88;;;;;;;40.25;15.07;100404.84;5035564;28;20041;-63
2022/07/12 02:54:03;;;;;;;14.88;1.73;;;;;;;40.04;15.31;100398.03;5036042;28;20044;-64
2022/07/12 02:56:30;;;;;;;18.83;1.88;;;;;;;39.87;15.52;100406.91;5036216;28;20045;-62
2022/07/12 02:58:57;;;;;;;16.00;1.80;;;;;;;39.97;15.19;100404.06;5040677;28;20037;-62
2022/07/12 03:01:24;;;;;;;17.42;2.08;;;;;;;39.93;15.63;100411.97;5037677;28;20185;-64
2022/07/12 03:03:50;;;;;;;12.55;1.60;;;;;;;39.75;15.69;100412.75;5039704;28;20033;-63
2022/07/12 03:06:17;;;;;;;12.10;1.67;;;;;;;39.58;15.21;100421.59;5042814;28;20036;-63
2022/07/12 03:08:44;;;;;;;8.38;1.60;;;;;;;39.55;15.63;100413.22;5037860;28;20078;-65
2022/07/12 03:11:13;;;;;;;11.98;2.55;;;;;;;39.53;15.30;100410.84;5043503;28;20693;-63
2022/07/12 03:13:39;;;;;;;9.20;2.28;;;;;;;39.44;15.13;100421.38;5052324;28;20048;-63
2022/07/12 03:16:07;;;;;;;12.65;2.45;;;;;;;39.37;15.50;100416.00;5051455;28;20487;-62
2022/07/12 03:18:34;;;;;;;15.15;2.88;;;;;;;39.31;14.97;100421.50;5051742;28;20024;-63
2022/07/12 03:21:01;;;;;;;12.55;2.55;;;;;;;39.33;15.31;100433.22;5052867;28;20021;-62
2022/07/12 03:23:27;;;;;;;13.75;2.63;;;;;;;39.20;15.11;100424.81;5052882;28;20017;-64
2022/07/12 03:25:54;;;;;;;9.63;2.10;;;;;;;39.22;14.81;100442.19;5052671;28;20033;-66
2022/07/12 03:28:21;;;;;;;13.80;2.40;;;;;;;39.06;14.76;100430.25;5051671;28;20013;-63
2022/07/12 03:30:48;;;;;;;13.25;2.30;;;;;;;38.88;14.76;100428.94;5051507;28;20029;-64
2022/07/12 03:33:14;;;;;;;16.88;2.28;;;;;;;38.83;14.82;100432.38;5051475;28;20021;-62
2022/07/12 03:35:41;;;;;;;12.93;2.20;;;;;;;38.86;14.23;100439.19;5052073;28;20368;-65
2022/07/12 03:38:08;;;;;;;8.27;2.65;;;;;;;38.81;14.20;100434.13;5052322;28;20577;-65
2022/07/12 03:40:34;;;;;;;10.80;1.85;;;;;;;38.71;13.71;100435.31;5052616;28;20038;-63
2022/07/12 03:43:01;;;;;;;16.73;2.28;;;;;;;38.69;14.10;100447.94;5052667;28;20040;-63
2022/07/12 03:45:28;;;;;;;13.38;1.98;;;;;;;38.69;14.04;100459.31;5051269;28;20431;-64
2022/07/12 03:47:54;;;;;;;19.10;2.00;;;;;;;38.72;13.56;100453.94;5035021;28;20028;-65
2022/07/12 03:50:21;;;;;;;13.45;1.80;;;;;;;38.55;14.04;100459.81;5052400;28;20372;-64
2022/07/12 03:52:48;;;;;;;16.10;2.38;;;;;;;38.38;14.54;100461.28;5052190;28;20029;-65
2022/07/12 03:55:15;;;;;;;19.77;2.03;;;;;;;38.31;14.25;100464.41;5052556;28;20063;-64
2022/07/12 03:57:41;;;;;;;15.57;2.05;;;;;;;38.23;14.60;100463.06;5052361;28;20032;-65
2022/07/12 04:00:11;;;;;;;13.15;1.98;;;;;;;38.29;14.30;100469.75;5052250;28;20033;-62
2022/07/12 04:02:39;;;;;;;12.43;1.70;;;;;;;38.20;14.39;100470.47;5052156;28;20037;-63
2022/07/12 04:05:07;;;;;;;10.85;1.88;;;;;;;38.06;14.62;100477.44;5049352;28;20036;-63
2022/07/12 04:07:34;;;;;;;6.65;1.77;;;;;;;37.97;15.05;100479.41;5051900;28;20032;-64
2022/07/12 04:10:01;;;;;;;16.33;2.35;;;;;;;37.87;15.38;100486.22;5050675;28;20037;-64
2022/07/12 04:12:27;;;;;;;10.25;2.33;;;;;;;37.96;15.31;100481.44;5051776;28;20021;-65
2022/07/12 04:14:54;;;;;;;20.63;3.00;;;;;;;37.78;15.66;100490.56;5051955;28;20036;-65
2022/07/12 04:17:21;;;;;;;15.40;4.88;;;;;;;37.63;15.69;100477.31;5051797;28;20096;-64
2022/07/12 04:19:48;;;;;;;50.20;5.18;;;;;;;37.81;17.70;100491.69;5052348;28;20033;-65
2022/07/12 04:22:14;;;;;;;13.05;2.65;;;;;;;37.73;16.30;100493.22;5052390;28;20025;-64
2022/07/12 04:24:41;;;;;;;12.90;2.72;;;;;;;37.38;17.59;100493.13;5052175;28;20037;-64
2022/07/12 04:27:08;;;;;;;13.32;2.25;;;;;;;37.10;17.50;100508.16;5051203;28;20025;-68
2022/07/12 04:29:34;;;;;;;11.93;2.30;;;;;;;36.80;19.46;100517.97;5052000;28;20124;-66
2022/07/12 04:32:01;;;;;;;11.05;2.05;;;;;;;36.54;18.23;100529.22;5051996;28;20029;-67
2022/07/12 04:34:28;;;;;;;10.90;2.00;;;;;;;36.44;19.98;100529.50;5051203;28;20037;-65
2022/07/12 04:36:54;;;;;;;11.02;1.92;;;;;;;36.24;19.34;100521.94;5050743;28;20021;-67
2022/07/12 04:39:21;;;;;;;16.23;2.88;;;;;;;36.10;19.78;100527.22;5052398;28;20120;-67
2022/07/12 04:41:48;;;;;;;13.15;2.00;;;;;;;36.05;21.01;100525.69;5051585;28;20029;-67
2022/07/12 04:44:15;;;;;;;14.77;2.10;;;;;;;35.89;20.02;100522.88;5052450;28;20112;-68
2022/07/12 04:46:41;;;;;;;12.65;2.08;;;;;;;36.06;19.58;100543.47;5052387;28;20021;-67
2022/07/12 04:49:08;;;;;;;30.45;3.75;;;;;;;36.06;21.29;100549.13;5052395;28;20067;-67
2022/07/12 04:51:35;;;;;;;15.43;8.60;;;;;;;36.25;19.38;100557.47;5052649;28;20035;-67
2022/07/12 04:54:01;;;;;;;17.40;2.35;;;;;;;36.35;18.58;100557.69;5050022;28;20139;-65
2022/07/12 04:56:28;;;;;;;10.40;2.22;;;;;;;36.12;19.69;100558.69;5050758;28;20025;-66
2022/07/12 04:58:55;;;;;;;13.10;2.58;;;;;;;35.96;19.40;100562.31;5051067;28;20041;-65
2022/07/12 05:01:21;;;;;;;12.23;2.85;;;;;;;35.78;21.31;100554.25;5052364;28;20025;-67
2022/07/12 05:03:48;;;;;;;18.83;3.15;;;;;;;35.80;21.58;100565.91;5052390;28;20037;-64
2022/07/12 05:06:15;;;;;;;16.38;3.10;;;;;;;35.61;21.45;100561.13;5051850;28;20017;-67
2022/07/12 05:08:42;;;;;;;15.85;2.65;;;;;;;35.66;20.20;100555.75;5052375;28;20116;-67
2022/07/12 05:11:09;;;;;;;13.35;2.70;;;;;;;35.60;20.85;100560.34;5052088;28;20025;-67
2022/07/12 05:13:37;;;;;;;22.58;3.28;;;;;;;35.87;19.79;100576.28;5046526;28;20040;-67
2022/07/12 05:16:07;;;;;;;13.80;3.00;;;;;;;35.67;19.78;100568.66;5046602;28;20096;-67
2022/07/12 05:18:34;;;;;;;10.40;2.60;;;;;;;35.47;21.46;100569.94;5050751;28;20488;-65
2022/07/12 05:21:01;;;;;;;9.95;2.53;;;;;;;35.31;21.76;100584.81;5050555;28;20025;-65
2022/07/12 05:23:28;;;;;;;9.13;2.45;;;;;;;35.18;22.57;100578.25;5051408;28;20437;-66
2022/07/12 05:25:55;;;;;;;12.20;2.58;;;;;;;35.22;22.81;100576.16;5051612;28;20485;-65
2022/07/12 05:28:22;;;;;;;20.10;2.80;;;;;;;35.01;23.07;100575.38;5051676;28;20411;-65
2022/07/12 05:30:48;;;;;;;9.82;2.30;;;;;;;35.05;23.96;100573.28;5051752;28;20028;-65
2022/07/12 05:33:15;;;;;;;10.32;2.20;;;;;;;34.94;23.72;100589.66;5052127;28;20040;-66
2022/07/12 05:35:42;;;;;;;16.85;2.10;;;;;;;34.80;24.73;100584.25;5051239;28;20070;-65
2022/07/12 05:38:09;;;;;;;11.15;2.10;;;;;;;34.72;25.24;100583.63;5030101;28;20041;-65
2022/07/12 05:40:35;;;;;;;16.17;2.13;;;;;;;34.71;24.54;100581.22;5030150;28;20056;-65
2022/07/12 05:43:02;;;;;;;11.45;2.20;;;;;;;34.63;24.71;100586.19;5029531;28;20040;-66
2022/07/12 05:45:29;;;;;;;13.20;2.47;;;;;;;34.58;24.31;100580.28;5031239;28;20032;-66
2022/07/12 05:47:56;;;;;;;12.25;1.95;;;;;;;34.52;25.32;100588.44;5048907;28;20029;-65
2022/07/12 05:50:23;;;;;;;12.80;2.10;;;;;;;34.51;24.60;100587.66;5031209;28;20103;-66
2022/07/12 05:55:35;;;;;;;19.75;3.08;;;;;;;34.42;25.78;100586.63;5037840;28;20091;-63
2022/07/12 05:58:03;;;;;;;21.55;2.53;;;;;;;34.33;25.52;100587.16;5036665;28;20446;-63
2022/07/12 06:00:32;;;;;;;21.67;2.97;;;;;;;34.33;26.56;100600.47;5047038;28;20198;-64
2022/07/12 06:02:59;;;;;;;15.73;3.00;;;;;;;34.27;26.43;100597.31;5044893;28;20021;-64
2022/07/12 06:05:25;;;;;;;21.35;6.60;;;;;;;34.28;26.61;100598.91;5044463;28;20060;-62
2022/07/12 06:07:52;;;;;;;23.55;10.82;;;;;;;34.50;26.95;100599.38;5048227;28;20039;-63
2022/07/12 06:10:19;;;;;;;28.58;12.80;;;;;;;34.34;28.00;100599.25;5046713;28;20124;-62
2022/07/12 06:12:46;;;;;;;25.75;11.85;;;;;;;34.25;28.21;100596.97;5050340;28;20051;-62
2022/07/12 06:15:13;;;;;;;20.80;11.45;;;;;;;34.12;28.85;100602.44;5048654;28;20155;-63
2022/07/12 06:17:39;;;;;;;23.27;10.88;;;;;;;34.06;28.69;100594.88;5049082;28;20025;-63
2022/07/12 06:20:07;;;;;;;25.27;9.80;;;;;;;33.98;29.71;100602.69;5052462;28;20032;-63
2022/07/12 06:22:33;;;;;;;21.27;9.80;;;;;;;33.89;29.69;100589.13;5054045;28;20104;-63
2022/07/12 06:25:01;;;;;;;18.10;7.28;;;;;;;33.89;30.36;100605.22;5054322;28;20430;-63
2022/07/12 06:27:27;;;;;;;12.48;5.88;;;;;;;33.74;30.57;100593.34;5051817;28;20040;-63
2022/07/12 06:29:54;;;;;;;13.15;4.65;;;;;;;33.77;31.42;100609.44;5051957;28;20399;-63
2022/07/12 06:32:21;;;;;;;11.13;3.70;;;;;;;33.91;30.58;100605.59;5051935;28;20082;-63
2022/07/12 06:34:48;;;;;;;13.80;3.33;;;;;;;33.75;30.52;100597.75;5034886;28;20476;-63
2022/07/12 06:37:15;;;;;;;15.07;4.82;;;;;;;33.74;30.89;100606.66;5051202;28;20499;-64
2022/07/12 06:39:47;;;;;;;7.80;2.80;;;;;;;33.72;30.99;100609.09;5053307;28;20108;-63
2022/07/12 06:42:14;;;;;;;12.23;3.40;;;;;;;33.64;30.87;100606.41;5053369;28;20086;-64
2022/07/12 06:44:52;;;;;;;11.10;3.13;;;;;;;33.58;31.13;100607.31;5052987;28;20020;-62
2022/07/12 06:47:19;;;;;;;16.40;3.58;;;;;;;33.54;31.57;100612.97;5052427;28;20025;-65
2022/07/12 06:49:46;;;;;;;11.52;3.05;;;;;;;33.49;31.81;100616.28;5052655;28;20040;-63
2022/07/12 06:52:13;;;;;;;9.27;2.80;;;;;;;33.38;31.80;100610.00;5050610;28;20522;-64
2022/07/12 06:54:40;;;;;;;9.73;3.17;;;;;;;33.26;31.72;100604.91;5050848;28;20148;-63
2022/07/12 06:57:07;;;;;;;13.80;3.05;;;;;;;33.26;32.15;100608.53;5051872;28;20505;-63
2022/07/12 06:59:33;;;;;;;12.32;3.30;;;;;;;33.17;32.27;100613.06;5050512;28;20025;-64
2022/07/12 07:02:01;;;;;;;23.42;11.77;;;;;;;33.05;33.14;100600.34;5051542;28;20391;-63
2022/07/12 07:04:28;;;;;;;26.95;15.70;;;;;;;33.02;33.48;100609.63;5051881;28;20021;-63
2022/07/12 07:06:54;;;;;;;23.17;9.73;;;;;;;32.97;33.20;100610.09;5052467;28;20036;-63
2022/07/12 07:09:21;;;;;;;15.93;5.10;;;;;;;32.93;34.15;100612.16;5052936;28;20021;-64
2022/07/12 07:11:48;;;;;;;13.23;4.03;;;;;;;32.83;33.60;100613.06;5053174;28;20029;-64
2022/07/12 07:14:15;;;;;;;10.48;3.55;;;;;;;32.80;33.80;100622.34;5052586;28;20070;-64
2022/07/12 07:16:42;;;;;;;15.45;3.83;;;;;;;32.72;33.63;100613.97;5053554;28;20076;-64
2022/07/12 07:19:08;;;;;;;10.98;3.70;;;;;;;32.66;34.45;100612.81;5053101;28;20033;-64
2022/07/12 07:21:35;;;;;;;12.48;3.75;;;;;;;32.57;35.28;100608.91;5052890;28;20491;-63
2022/07/12 07:24:03;;;;;;;12.38;3.40;;;;;;;32.41;35.18;100610.28;5053850;28;20033;-64
2022/07/12 07:26:32;;;;;;;11.88;4.10;;;;;;;32.26;35.95;100620.03;5053958;28;20029;-64
2022/07/12 07:31:44;;;;;;;11.63;3.70;;;;;;;32.17;35.88;100619.72;5053001;28;20044;-63
2022/07/12 07:34:10;;;;;;;12.88;3.90;;;;;;;32.20;35.51;100620.91;5053143;28;20028;-64
2022/07/12 07:36:37;;;;;;;14.27;3.42;;;;;;;32.12;36.28;100615.31;5052709;28;20029;-64
2022/07/12 07:39:04;;;;;;;11.18;3.65;;;;;;;32.19;36.81;100608.06;5052777;28;20053;-64
2022/07/12 07:41:31;;;;;;;12.15;3.65;;;;;;;32.31;36.77;100616.00;5053021;28;20037;-63
2022/07/12 07:43:57;;;;;;;9.82;3.20;;;;;;;32.13;36.66;100611.28;5053170;28;20029;-64
2022/07/12 07:46:24;;;;;;;13.60;3.55;;;;;;;32.01;37.21;100609.00;5052355;28;20056;-65
2022/07/12 07:48:51;;;;;;;12.02;3.75;;;;;;;31.81;36.63;100610.78;5053433;28;20033;-64
2022/07/12 07:51:17;;;;;;;15.25;3.70;;;;;;;31.92;36.98;100611.47;5052113;28;20053;-64
2022/07/12 07:53:44;;;;;;;10.20;3.05;;;;;;;31.95;37.08;100613.47;5052133;28;20025;-63
2022/07/12 07:56:11;;;;;;;14.13;3.65;;;;;;;31.99;36.31;100610.63;5052057;28;20036;-64
2022/07/12 07:58:37;;;;;;;19.33;4.38;;;;;;;31.96;37.39;100603.00;5051774;28;20040;-64
2022/07/12 08:01:04;;;;;;;19.20;4.50;;;;;;;31.93;37.26;100606.66;5052886;28;20055;-64
2022/07/12 08:03:31;;;;;;;19.33;4.45;;;;;;;31.88;37.32;100602.28;5053131;28;20487;-63
2022/07/12 08:05:58;;;;;;;14.07;4.47;;;;;;;31.83;37.40;100597.91;5051549;28;20033;-63
2022/07/12 08:08:25;;;;;;;17.50;4.50;;;;;;;31.86;37.35;100602.69;5053084;28;20033;-63
2022/07/12 08:10:51;;;;;;;15.60;3.97;;;;;;;31.81;37.26;100599.53;5051540;28;20101;-63
2022/07/12 08:13:18;;;;;;;16.25;3.60;;;;;;;31.77;37.72;100587.50;5053145;28;20037;-64
2022/07/12 08:15:45;;;;;;;11.43;3.50;;;;;;;31.70;37.39;100587.53;5053300;28;20050;-64
2022/07/12 08:18:12;;;;;;;17.05;3.65;;;;;;;31.65;38.12;100597.19;5052013;28;20068;-63
2022/07/12 08:20:39;;;;;;;21.75;3.70;;;;;;;31.63;38.01;100596.03;5052828;28;20032;-64
2022/07/12 08:23:06;;;;;;;16.85;3.88;;;;;;;31.55;37.79;100598.84;5051619;28;20033;-64
2022/07/12 08:25:32;;;;;;;13.80;3.75;;;;;;;31.44;38.42;100586.91;5052645;28;20029;-64
2022/07/12 08:27:59;;;;;;;16.83;4.28;;;;;;;31.46;37.88;100592.91;5051741;28;20025;-64
2022/07/12 08:30:26;;;;;;;20.60;4.68;;;;;;;31.50;37.74;100590.06;5050563;28;20029;-63
2022/07/12 08:32:54;;;;;;;14.35;4.18;;;;;;;31.48;38.29;100582.06;5051017;28;20029;-64
2022/07/12 08:35:21;;;;;;;18.65;4.35;;;;;;;31.51;37.83;100589.66;5052425;28;20403;-64
2022/07/12 08:37:48;;;;;;;16.45;3.90;;;;;;;31.43;38.26;100585.31;5052404;28;20049;-64
2022/07/12 08:40:14;;;;;;;15.20;3.85;;;;;;;31.40;38.65;100580.50;5052537;28;20033;-64
2022/07/12 08:42:42;;;;;;;13.30;3.65;;;;;;;31.32;38.56;100578.16;5051390;28;20075;-64
2022/07/12 08:45:10;;;;;;;23.40;4.45;;;;;;;31.18;38.73;100584.63;5052640;28;20087;-64
2022/07/12 08:47:37;;;;;;;11.80;3.33;;;;;;;31.10;38.62;100588.66;5052581;28;20166;-63
2022/07/12 08:50:10;;;;;;;14.50;4.45;;;;;;;31.07;38.98;100589.47;5052629;28;20108;-64
2022/07/12 08:52:46;;;;;;;29.73;4.33;;;;;;;31.05;38.77;100586.25;5052395;28;20041;-63
2022/07/12 08:55:30;;;;;;;11.77;4.18;;;;;;;31.07;39.28;100597.91;5052430;28;20112;-65
2022/07/12 08:58:02;;;;;;;15.95;3.55;;;;;;;31.05;39.48;100589.06;5052629;28;20029;-64
2022/07/12 09:00:30;;;;;;;16.15;3.47;;;;;;;31.07;39.45;100593.09;5052419;28;20124;-66
2022/07/12 09:02:59;;;;;;;14.45;3.45;;;;;;;31.04;39.12;100595.88;5052330;28;20036;-66
2022/07/12 09:05:28;;;;;;;19.45;3.22;;;;;;;31.03;38.75;100588.69;5052137;28;20044;-65
2022/07/12 09:08:05;;;;;;;9.68;2.42;;;;;;;30.89;38.89;100590.34;5052080;28;20028;-64
2022/07/12 09:10:34;;;;;;;24.23;4.38;;;;;;;30.84;39.33;100590.75;5052406;28;20495;-65
2022/07/12 09:13:01;;;;;;;14.48;4.05;;;;;;;30.81;39.68;100599.19;5052238;28;20032;-65
2022/07/12 09:15:28;;;;;;;14.60;3.60;;;;;;;30.74;39.94;100593.63;5052184;28;20523;-65
2022/07/12 09:17:59;;;;;;;16.45;3.60;;;;;;;30.71;40.56;100598.03;5051200;28;20064;-64
2022/07/12 09:20:32;;;;;;;14.88;3.60;;;;;;;30.57;40.61;100600.84;5052231;28;20044;-64
2022/07/12 09:23:04;;;;;;;10.40;3.88;;;;;;;30.56;40.88;100607.66;5051456;28;20033;-65
2022/07/12 09:25:34;;;;;;;14.52;3.67;;;;;;;30.65;40.86;100605.25;5052030;28;20037;-64
2022/07/12 09:28:06;;;;;;;12.93;3.17;;;;;;;30.49;41.73;100599.22;5052345;28;20078;-65
2022/07/12 09:30:36;;;;;;;12.43;3.22;;;;;;;30.46;41.06;100600.84;5052235;28;20037;-64
2022/07/12 09:36:13;;;;;;;14.05;3.67;;;;;;;30.30;41.92;100592.06;5051970;28;20035;-64
2022/07/12 09:38:50;;;;;;;18.00;3.65;;;;;;;30.14;42.42;100595.28;5051860;28;20057;-64
2022/07/12 09:41:18;;;;;;;12.00;4.55;;;;;;;30.07;42.90;100596.09;5053650;28;20044;-63
2022/07/12 09:43:46;;;;;;;15.40;4.65;;;;;;;30.02;43.25;100598.47;5054761;28;20017;-63
2022/07/12 09:46:14;;;;;;;22.13;6.10;;;;;;;29.99;43.42;100599.28;5053984;28;20033;-63
2022/07/12 09:48:41;;;;;;;11.02;5.40;;;;;;;29.95;43.18;100590.84;5054136;28;20091;-63
2022/07/12 09:51:14;;;;;;;13.85;5.50;;;;;;;30.07;43.25;100607.28;5053656;28;20064;-63
2022/07/12 09:53:46;;;;;;;19.05;5.82;;;;;;;30.10;43.19;100600.09;5054053;28;20029;-63
2022/07/12 09:56:18;;;;;;;21.23;5.65;;;;;;;29.94;44.79;100608.06;5052600;28;20033;-64
2022/07/12 09:58:57;;;;;;;20.05;5.85;;;;;;;29.85;45.58;100611.25;5053667;28;20399;-64
2022/07/12 10:01:25;;;;;;;15.82;5.68;;;;;;;29.81;45.54;100601.25;5055508;28;20098;-64
2022/07/12 10:03:52;;;;;;;17.33;5.82;;;;;;;29.76;45.48;100603.22;5055646;28;20031;-63
2022/07/12 10:06:28;;;;;;;15.85;5.45;;;;;;;29.72;45.55;100608.03;5053843;28;20037;-64
2022/07/12 10:08:56;;;;;;;18.42;5.78;;;;;;;29.65;45.61;100610.84;5055286;28;20483;-63
2022/07/12 10:11:26;;;;;;;18.02;6.10;;;;;;;29.72;44.88;100601.63;5054197;28;20060;-63
2022/07/12 10:13:54;;;;;;;14.40;5.50;;;;;;;29.68;45.58;100601.63;5055415;28;20071;-64
2022/07/12 10:16:28;;;;;;;15.95;5.97;;;;;;;29.64;46.53;100606.44;5055363;28;20112;-64
2022/07/12 10:19:23;;;;;;;15.60;5.72;;;;;;;29.68;47.30;100609.25;5055255;28;20057;-63
2022/07/12 10:21:51;;;;;;;12.73;4.88;;;;;;;29.77;47.19;100607.63;5055395;28;20044;-64
2022/07/12 10:24:33;;;;;;;15.35;5.00;;;;;;;29.72;46.72;100607.22;5055194;28;20029;-64
2022/07/12 10:27:21;;;;;;;20.70;6.32;;;;;;;29.62;48.03;100608.81;5054943;28;20443;-63
2022/07/12 10:29:52;;;;;;;15.63;6.95;;;;;;;29.62;46.64;100608.81;5047856;28;20045;-64
2022/07/12 10:32:26;;;;;;;19.90;6.47;;;;;;;29.50;47.52;100616.81;5054868;28;20491;-65
2022/07/12 10:34:59;;;;;;;19.00;6.40;;;;;;;29.47;48.11;100621.19;5054551;28;20132;-65
2022/07/12 10:37:27;;;;;;;12.18;6.13;;;;;;;29.40;48.63;100624.72;5053099;28;20175;-64
2022/07/12 10:40:13;;;;;;;17.95;6.68;;;;;;;29.54;49.28;100623.22;5054907;28;20094;-63
2022/07/12 10:43:02;;;;;;;21.33;8.00;;;;;;;29.60;49.16;100625.22;5054738;28;20069;-65
2022/07/12 10:45:40;;;;;;;15.13;9.25;;;;;;;29.51;49.29;100607.19;5054784;28;20029;-64
2022/07/12 10:48:14;;;;;;;25.98;11.02;;;;;;;29.42;49.27;100615.94;5054959;28;20040;-65
2022/07/12 10:50:55;;;;;;;21.25;10.68;;;;;;;29.34;49.21;100615.13;5054640;28;20033;-64
2022/07/12 10:53:40;;;;;;;24.42;10.65;;;;;;;29.34;49.23;100605.94;5054133;28;20479;-64
2022/07/12 10:56:06;;;;;;;;;;;;;;;29.30;49.32;100607.91;5054991;28;20037;-64
2022/07/12 10:58:38;;;;;;;16.85;9.02;;;;;;;29.18;50.36;100612.66;5069945;28;19916;-64
2022/07/12 11:01:07;;;;;;;19.52;8.20;;;;;;;29.27;50.46;100614.31;5054310;28;20036;-65
2022/07/12 11:03:50;;;;;;;18.75;8.18;;;;;;;29.17;51.19;100605.47;5054615;28;20131;-65
2022/07/12 11:06:19;;;;;;;14.45;5.75;;;;;;;29.13;51.51;100615.06;5054187;28;20025;-65
2022/07/12 11:09:04;;;;;;;13.00;5.30;;;;;;;29.08;52.38;100619.00;5053103;28;20103;-64
2022/07/12 11:11:32;;;;;;;;;;;;;;;29.00;51.36;100630.56;5054735;28;20072;-65
2022/07/12 11:14:00;;;;;;;21.10;5.80;;;;;;;29.10;50.42;100622.25;5054299;28;19921;-64
2022/07/12 11:16:30;;;;;;;12.30;5.00;;;;;;;28.95;50.75;100622.56;5036323;28;20060;-64
2022/07/12 11:18:57;;;;;;;16.17;5.10;;;;;;;29.00;51.99;100622.97;5053583;28;20036;-64
2022/07/12 11:21:25;;;;;;;16.10;4.90;;;;;;;28.90;52.46;100620.91;5052952;28;20055;-63
2022/07/12 11:23:52;;;;;;;15.18;4.57;;;;;;;28.84;52.66;100634.47;5054095;28;20037;-64
2022/07/12 11:26:19;;;;;;;11.95;3.85;;;;;;;28.94;53.45;100640.53;5052725;28;20032;-64
2022/07/12 11:28:48;;;;;;;21.30;3.63;;;;;;;29.02;53.10;100640.19;5054067;28;20083;-63
2022/07/12 11:31:17;;;;;;;19.00;3.90;;;;;;;28.86;53.57;100639.69;5053630;28;20021;-63
2022/07/12 11:33:48;;;;;;;11.63;3.78;;;;;;;28.79;53.06;100636.84;5053885;28;20511;-63